Time;durP1;ratioP1;P1;durP2;ratioP2;P2;SDS_P1;SDS_P2;PMS_P1;PMS_P2;Temp;Humidity;BMP_temperature;BMP_pressure;BME280_temperature;BME280_humidity;BME280_pressure;Samples;Min_cycle;Max_cycle;Signal;HPM_P1;HPM_P2
2022/06/06 00:00:03;;;;;;;0.80;0.80;;;14.70;99.90;;;;;;5072293;28;20531;-58
2022/06/06 00:02:30;;;;;;;1.40;1.30;;;14.60;99.90;;;;;;5071995;28;20256;-58
2022/06/06 00:04:57;;;;;;;2.17;1.20;;;14.60;99.90;;;;;;5072216;28;20613;-58
2022/06/06 00:07:25;;;;;;;1.93;1.73;;;14.60;99.90;;;;;;5072018;28;20181;-58
2022/06/06 00:09:51;;;;;;;1.83;1.73;;;14.60;99.90;;;;;;5065917;28;20579;-57
2022/06/06 00:12:17;;;;;;;3.00;1.30;;;14.70;99.90;;;;;;5050785;28;20188;-58
2022/06/06 00:14:43;;;;;;;0.40;0.30;;;14.70;99.90;;;;;;5051960;28;20183;-58
2022/06/06 00:17:09;;;;;;;0.27;0.27;;;14.60;99.90;;;;;;5051934;28;20279;-58
2022/06/06 00:19:35;;;;;;;3.43;1.13;;;14.60;99.90;;;;;;5051732;28;20194;-58
2022/06/06 00:22:01;;;;;;;1.30;0.93;;;14.60;99.90;;;;;;5051728;28;20235;-58
2022/06/06 00:24:27;;;;;;;0.50;0.50;;;14.60;99.90;;;;;;5050203;28;20643;-58
2022/06/06 00:26:53;;;;;;;0.67;0.67;;;14.60;99.90;;;;;;5051698;28;20186;-58
2022/06/06 00:29:20;;;;;;;0.77;0.77;;;14.60;99.90;;;;;;5051525;28;20623;-58
2022/06/06 00:34:48;;;;;;;0.40;0.40;;;14.60;99.90;;;;;;5051741;28;20216;-58
2022/06/06 00:37:17;;;;;;;2.80;1.60;;;14.50;99.90;;;;;;5051678;28;20208;-58
2022/06/06 00:39:44;;;;;;;4.37;2.10;;;14.40;99.90;;;;;;5051807;28;20265;-58
2022/06/06 00:42:21;;;;;;;3.70;1.63;;;14.40;99.90;;;;;;5051639;28;20242;-59
2022/06/06 00:44:48;;;;;;;1.03;0.97;;;14.30;99.90;;;;;;5051772;28;20197;-58
2022/06/06 00:47:27;;;;;;;3.97;1.43;;;14.20;99.90;;;;;;5051536;28;20184;-58
2022/06/06 00:50:09;;;;;;;2.63;1.13;;;14.20;99.90;;;;;;5051734;28;20637;-58
2022/06/06 00:52:39;;;;;;;1.73;1.07;;;14.20;99.90;;;;;;5051627;28;20167;-59
2022/06/06 00:55:10;;;;;;;4.20;1.23;;;14.20;99.90;;;;;;5051589;28;20205;-58
2022/06/06 00:57:40;;;;;;;1.83;0.90;;;14.20;99.90;;;;;;5051394;28;20179;-58
2022/06/06 01:00:12;;;;;;;1.43;1.17;;;14.20;99.90;;;;;;5051703;28;20208;-58
2022/06/06 01:02:42;;;;;;;5.23;1.33;;;14.20;99.90;;;;;;5051224;28;20178;-58
2022/06/06 01:05:10;;;;;;;0.33;0.33;;;14.30;99.90;;;;;;5054507;28;20180;-62
2022/06/06 01:07:35;;;;;;;1.20;1.03;;;14.30;99.90;;;;;;5033370;28;20210;-59
2022/06/06 01:10:01;;;;;;;1.23;1.13;;;14.30;99.90;;;;;;5048042;28;20177;-59
2022/06/06 01:12:31;;;;;;;1.73;1.57;;;14.30;99.90;;;;;;5072731;28;20195;-59
2022/06/06 01:15:02;;;;;;;0.80;0.67;;;14.30;99.90;;;;;;5074887;28;20223;-58
2022/06/06 01:17:49;;;;;;;1.93;0.83;;;14.30;99.90;;;;;;5074818;28;20200;-58
2022/06/06 01:20:31;;;;;;;1.00;0.90;;;14.40;99.90;;;;;;5073854;28;20176;-62
2022/06/06 01:23:19;;;;;;;2.63;1.57;;;14.40;99.90;;;;;;5054975;28;20170;-58
2022/06/06 01:25:51;;;;;;;1.90;1.17;;;14.40;99.90;;;;;;5054788;28;20177;-58
2022/06/06 01:28:26;;;;;;;1.30;1.23;;;14.40;99.90;;;;;;5054409;28;20193;-58
2022/06/06 01:30:56;;;;;;;1.73;1.07;;;14.40;99.90;;;;;;5054700;28;20245;-58
2022/06/06 01:33:22;;;;;;;0.97;0.73;;;14.50;99.90;;;;;;5053071;28;20207;-59
2022/06/06 01:35:52;;;;;;;1.20;1.10;;;14.50;99.90;;;;;;5054538;28;20206;-58
2022/06/06 01:38:22;;;;;;;0.90;0.90;;;14.40;99.90;;;;;;5054372;28;20239;-58
2022/06/06 01:41:00;;;;;;;1.30;1.20;;;14.40;99.90;;;;;;5054500;28;20666;-58
2022/06/06 01:43:44;;;;;;;2.37;0.97;;;14.40;99.90;;;;;;5053997;28;20629;-58
2022/06/06 01:46:15;;;;;;;1.10;1.00;;;14.40;99.90;;;;;;5054311;28;20265;-58
2022/06/06 01:48:43;;;;;;;1.67;1.57;;;14.20;99.90;;;;;;5054017;28;20181;-57
2022/06/06 01:51:14;;;;;;;0.40;0.40;;;14.10;99.90;;;;;;5053888;28;20576;-57
2022/06/06 01:53:41;;;;;;;2.40;1.60;;;14.00;99.90;;;;;;5053775;28;20217;-58
2022/06/06 01:56:09;;;;;;;1.57;1.00;;;14.00;99.90;;;;;;5053914;28;20586;-57
2022/06/06 01:58:36;;;;;;;2.00;1.30;;;13.90;99.90;;;;;;5053825;28;20182;-58
2022/06/06 02:01:03;;;;;;;1.17;1.03;;;13.80;99.90;;;;;;5053978;28;20190;-57
2022/06/06 02:03:30;;;;;;;7.03;1.77;;;13.80;99.90;;;;;;5053878;28;20213;-58
2022/06/06 02:05:56;;;;;;;2.17;1.23;;;13.70;99.90;;;;;;5053906;28;20190;-57
2022/06/06 02:08:22;;;;;;;1.37;1.27;;;13.70;99.90;;;;;;5053775;28;20178;-57
2022/06/06 02:10:48;;;;;;;0.57;0.53;;;13.70;99.90;;;;;;5067406;28;20185;-59
2022/06/06 02:13:15;;;;;;;1.53;1.43;;;13.70;99.90;;;;;;5073691;28;20231;-57
2022/06/06 02:15:41;;;;;;;1.20;1.10;;;13.60;99.90;;;;;;5072999;28;20602;-57
2022/06/06 02:18:07;;;;;;;1.13;1.03;;;13.60;99.90;;;;;;5073686;28;20188;-57
2022/06/06 02:20:34;;;;;;;1.03;0.87;;;13.50;99.90;;;;;;5069789;28;20178;-59
2022/06/06 02:23:00;;;;;;;3.23;1.57;;;13.60;99.90;;;;;;5053620;28;20189;-58
2022/06/06 02:25:28;;;;;;;2.87;1.30;;;13.50;99.90;;;;;;5053335;28;20297;-57
2022/06/06 02:27:54;;;;;;;0.70;0.47;;;13.60;99.90;;;;;;5053452;28;20186;-58
2022/06/06 02:30:27;;;;;;;1.67;1.57;;;13.60;99.90;;;;;;5053264;28;20569;-58
2022/06/06 02:32:53;;;;;;;5.83;2.40;;;13.60;99.90;;;;;;5053167;28;20643;-57
2022/06/06 02:35:23;;;;;;;1.23;1.13;;;13.50;99.90;;;;;;5053181;28;20187;-60
2022/06/06 02:37:50;;;;;;;1.43;0.87;;;13.60;99.90;;;;;;5053403;28;20190;-57
2022/06/06 02:40:18;;;;;;;2.60;1.30;;;13.60;99.90;;;;;;5053272;28;20611;-57
2022/06/06 02:42:45;;;;;;;2.00;1.07;;;13.60;99.90;;;;;;5053105;28;20240;-57
2022/06/06 02:45:15;;;;;;;0.60;0.60;;;13.60;99.90;;;;;;5052939;28;20178;-57
2022/06/06 02:47:46;;;;;;;1.37;1.00;;;13.70;99.90;;;;;;5053038;28;20182;-57
2022/06/06 02:50:14;;;;;;;2.27;1.27;;;13.70;99.90;;;;;;5053036;28;20170;-57
2022/06/06 02:52:40;;;;;;;1.80;1.07;;;13.80;99.90;;;;;;5052831;28;20227;-58
2022/06/06 02:55:08;;;;;;;4.13;1.47;;;13.90;99.90;;;;;;5052643;28;20185;-57
2022/06/06 02:57:45;;;;;;;1.73;1.57;;;14.00;99.90;;;;;;5052605;28;20665;-57
2022/06/06 03:00:15;;;;;;;2.17;1.67;;;14.10;99.90;;;;;;5052841;28;20166;-60
2022/06/06 03:02:40;;;;;;;3.03;1.50;;;14.10;99.90;;;;;;5052604;28;20584;-58
2022/06/06 03:05:08;;;;;;;4.87;1.80;;;14.10;99.90;;;;;;5052913;28;20280;-58
2022/06/06 03:08:07;;;;;;;11.37;1.67;;;14.20;99.90;;;;;;5052341;28;20190;-58
2022/06/06 03:10:45;;;;;;;2.03;1.10;;;14.20;99.90;;;;;;5064009;28;20203;-58
2022/06/06 03:13:23;;;;;;;2.43;2.03;;;14.30;99.90;;;;;;5072778;28;20618;-58
2022/06/06 03:22:11;;;;;;;1.83;1.47;;;14.40;99.90;;;;;;5057359;28;20248;-58
2022/06/06 03:25:03;;;;;;;0.77;0.50;;;14.30;99.90;;;;;;5052142;28;20234;-58
2022/06/06 03:27:57;;;;;;;1.60;1.50;;;14.30;99.90;;;;;;5051066;28;20189;-58
2022/06/06 03:30:35;;;;;;;1.93;1.17;;;14.30;99.90;;;;;;5051962;28;20253;-58
2022/06/06 03:33:09;;;;;;;1.40;0.97;;;14.40;99.90;;;;;;5052144;28;20170;-58
2022/06/06 03:35:59;;;;;;;1.87;1.57;;;14.40;99.90;;;;;;5051730;28;20214;-58
2022/06/06 03:38:44;;;;;;;2.17;1.20;;;14.40;99.90;;;;;;5052085;28;20182;-58
2022/06/06 03:41:39;;;;;;;1.93;1.43;;;14.50;99.90;;;;;;5051699;28;20536;-57
2022/06/06 03:44:13;;;;;;;2.53;1.60;;;14.50;99.90;;;;;;5051963;28;20165;-57
2022/06/06 03:46:42;;;;;;;5.90;3.07;;;14.60;99.90;;;;;;5051517;28;20200;-58
2022/06/06 03:49:20;;;;;;;2.63;1.10;;;14.60;99.90;;;;;;5051696;28;20182;-57
2022/06/06 03:52:02;;;;;;;1.70;1.33;;;14.60;99.90;;;;;;5051345;28;20178;-58
2022/06/06 03:54:46;;;;;;;2.30;1.97;;;14.60;99.90;;;;;;5051532;28;20166;-58
2022/06/06 03:57:18;;;;;;;3.00;2.10;;;14.80;99.90;;;;;;5051527;28;20292;-58
2022/06/06 03:59:53;;;;;;;1.77;1.07;;;14.80;99.90;;;;;;5051907;28;20206;-58
2022/06/06 04:02:25;;;;;;;8.60;1.43;;;14.90;99.90;;;;;;5052014;28;20165;-58
2022/06/06 04:04:52;;;;;;;2.27;1.30;;;14.90;99.90;;;;;;5051646;28;20186;-57
2022/06/06 04:07:17;;;;;;;3.07;1.70;;;15.10;99.90;;;;;;5051817;28;20657;-59
2022/06/06 04:09:43;;;;;;;1.17;1.17;;;15.30;99.90;;;;;;5056235;28;20522;-58
2022/06/06 04:12:10;;;;;;;3.70;2.80;;;15.50;99.90;;;;;;5071460;28;20192;-58
2022/06/06 04:15:02;;;;;;;2.30;1.60;;;15.60;99.90;;;;;;5070808;28;20568;-58
2022/06/06 04:17:30;;;;;;;8.40;1.50;;;15.80;99.90;;;;;;5071310;28;20193;-58
2022/06/06 04:20:20;;;;;;;3.50;2.53;;;15.70;99.90;;;;;;5071274;28;20193;-58
2022/06/06 04:22:48;;;;;;;2.63;1.53;;;15.80;99.90;;;;;;5031219;28;20167;-57
2022/06/06 04:25:32;;;;;;;1.63;1.33;;;15.80;99.90;;;;;;5031479;28;20317;-60
2022/06/06 04:28:04;;;;;;;1.77;1.67;;;15.90;99.90;;;;;;5031313;28;20209;-59
2022/06/06 04:30:46;;;;;;;2.97;2.60;;;15.90;99.90;;;;;;5030746;28;20194;-59
2022/06/06 04:33:22;;;;;;;1.40;1.30;;;16.00;99.90;;;;;;5031263;28;20187;-58
2022/06/06 04:35:53;;;;;;;1.47;0.80;;;16.00;99.90;;;;;;5030832;28;20643;-57
2022/06/06 04:38:40;;;;;;;2.63;1.80;;;16.10;99.90;;;;;;5033548;28;20186;-59
2022/06/06 04:41:16;;;;;;;0.40;0.40;;;16.20;99.90;;;;;;5034634;28;20171;-59
2022/06/06 04:43:59;;;;;;;0.73;0.73;;;16.10;99.90;;;;;;5034200;28;20527;-58
2022/06/06 04:46:44;;;;;;;3.50;2.10;;;16.20;99.90;;;;;;5034070;28;20225;-60
2022/06/06 04:49:14;;;;;;;2.23;1.23;;;16.40;99.90;;;;;;5034480;28;20206;-59
2022/06/06 04:51:42;;;;;;;1.63;1.23;;;16.50;99.90;;;;;;5033383;28;20195;-60
2022/06/06 04:54:13;;;;;;;2.13;1.80;;;16.70;99.90;;;;;;5033739;28;20575;-57
2022/06/06 04:56:39;;;;;;;1.30;1.20;;;16.60;99.90;;;;;;5033534;28;20281;-61
2022/06/06 04:59:09;;;;;;;2.27;1.43;;;16.80;99.90;;;;;;5034666;28;20210;-60
2022/06/06 05:01:36;;;;;;;1.43;1.27;;;17.20;99.90;;;;;;5034062;28;20456;-59
2022/06/06 05:04:02;;;;;;;3.13;1.17;;;17.40;99.90;;;;;;5034495;28;20266;-60
2022/06/06 05:06:36;;;;;;;6.47;2.03;;;17.40;99.90;;;;;;5033974;28;20218;-65
2022/06/06 05:09:21;;;;;;;3.47;2.10;;;17.30;99.90;;;;;;5034138;28;20178;-61
2022/06/06 05:11:52;;;;;;;0.97;0.97;;;17.40;99.90;;;;;;5033313;28;20163;-61
2022/06/06 05:14:43;;;;;;;1.33;1.23;;;17.40;99.90;;;;;;5033874;28;20203;-60
2022/06/06 05:17:12;;;;;;;3.37;1.17;;;17.30;99.90;;;;;;5033452;28;20899;-59
2022/06/06 05:19:46;;;;;;;2.70;1.67;;;17.40;99.90;;;;;;5033698;28;20266;-60
2022/06/06 05:22:20;;;;;;;2.80;2.13;;;17.30;99.90;;;;;;5046518;28;20194;-59
2022/06/06 05:25:02;;;;;;;3.60;2.07;;;17.00;99.90;;;;;;5054578;28;20583;-54
2022/06/06 05:27:31;;;;;;;1.27;1.17;;;17.00;99.90;;;;;;5064496;28;20202;-64
2022/06/06 05:30:10;;;;;;;2.17;1.20;;;17.10;99.90;;;;;;5050895;28;20595;-52
2022/06/06 05:32:49;;;;;;;2.13;1.53;;;17.00;99.90;;;;;;5052659;28;20273;-62
2022/06/06 05:35:33;;;;;;;3.17;1.93;;;17.10;99.90;;;;;;5054503;28;20221;-59
2022/06/06 05:38:20;;;;;;;2.13;1.93;;;17.10;99.90;;;;;;5059970;28;20550;-59
2022/06/06 05:41:12;;;;;;;1.90;1.03;;;17.20;99.90;;;;;;5061581;28;20181;-60
2022/06/06 05:44:01;;;;;;;0.90;0.87;;;17.40;99.90;;;;;;5060947;28;20193;-61
2022/06/06 05:46:48;;;;;;;3.63;1.50;;;17.50;99.90;;;;;;5060714;28;20186;-61
2022/06/06 05:49:42;;;;;;;1.70;1.60;;;17.50;99.90;;;;;;5059080;28;20197;-61
2022/06/06 05:52:10;;;;;;;2.77;1.47;;;17.60;99.90;;;;;;5061905;28;20187;-61
2022/06/06 05:54:53;;;;;;;1.13;0.30;;;17.50;99.90;;;;;;5061522;28;20190;-61
2022/06/06 05:57:19;;;;;;;1.70;1.47;;;17.60;99.90;;;;;;5061362;28;20224;-60
2022/06/06 06:00:06;;;;;;;2.40;2.07;;;17.70;99.90;;;;;;5060416;28;20198;-52
2022/06/06 06:02:57;;;;;;;2.23;2.00;;;17.70;99.90;;;;;;5059547;28;20727;-62
2022/06/06 06:05:41;;;;;;;1.27;1.07;;;17.90;99.90;;;;;;5061133;28;20186;-55
2022/06/06 06:08:13;;;;;;;8.10;1.20;;;18.00;99.90;;;;;;5060379;28;20238;-61
2022/06/06 06:10:57;;;;;;;4.47;1.27;;;18.00;99.90;;;;;;5060375;28;20700;-59
2022/06/06 06:13:29;;;;;;;1.17;1.07;;;18.00;99.90;;;;;;5060521;28;20190;-65
2022/06/06 06:15:59;;;;;;;0.57;0.57;;;18.10;99.90;;;;;;5061509;28;20711;-58
2022/06/06 06:18:36;;;;;;;0.80;0.80;;;18.20;99.90;;;;;;5060098;28;20236;-63
2022/06/06 06:21:08;;;;;;;0.70;0.70;;;18.10;99.90;;;;;;5061131;28;20247;-60
2022/06/06 06:23:37;;;;;;;0.63;0.50;;;18.10;99.90;;;;;;5059762;28;20257;-61
2022/06/06 06:26:05;;;;;;;0.93;0.77;;;18.20;99.90;;;;;;5060801;28;20197;-60
2022/06/06 06:28:33;;;;;;;0.73;0.73;;;18.50;99.90;;;;;;5061273;28;20218;-61
2022/06/06 06:31:05;;;;;;;1.98;0.98;;;18.70;99.90;;;;;;5060267;28;20214;-60
2022/06/06 06:33:52;;;;;;;0.40;0.40;;;18.80;99.90;;;;;;5059355;28;20190;-58
2022/06/06 06:36:30;;;;;;;0.80;0.65;;;18.80;99.90;;;;;;5059876;28;20767;-60
2022/06/06 06:39:18;;;;;;;2.65;0.98;;;19.00;99.90;;;;;;5061043;28;20238;-55
2022/06/06 06:41:56;;;;;;;0.98;0.85;;;19.00;99.90;;;;;;5060558;28;20201;-58
2022/06/06 06:44:33;;;;;;;2.30;1.10;;;19.10;99.90;;;;;;5060210;28;20193;-58
2022/06/06 06:47:21;;;;;;;1.15;0.50;;;19.10;99.90;;;;;;5060835;28;20186;-60
2022/06/06 06:50:08;;;;;;;3.28;1.73;;;19.20;99.90;;;;;;5059688;28;20177;-63
2022/06/06 06:52:50;;;;;;;0.30;0.30;;;19.40;99.90;;;;;;5060382;28;20197;-64
2022/06/06 06:55:51;;;;;;;1.00;0.70;;;19.50;99.90;;;;;;5060929;28;20208;-61
2022/06/06 06:58:56;;;;;;;1.08;0.40;;;19.60;99.90;;;;;;5058461;28;20249;-60
2022/06/06 07:01:37;;;;;;;1.05;0.93;;;19.80;99.90;;;;;;5059513;28;20235;-60
2022/06/06 07:11:27;;;;;;;1.58;0.63;;;20.30;99.90;;;;;;5059472;28;20212;-59
2022/06/06 07:14:04;;;;;;;0.73;0.73;;;20.30;99.90;;;;;;5059745;28;20185;-59
2022/06/06 07:16:34;;;;;;;0.28;0.28;;;20.40;99.90;;;;;;5060674;28;20210;-61
2022/06/06 07:19:08;;;;;;;3.90;1.70;;;20.60;99.90;;;;;;5060196;28;20273;-63
2022/06/06 07:21:35;;;;;;;0.43;0.43;;;20.90;99.90;;;;;;5059157;28;20197;-63
2022/06/06 07:24:05;;;;;;;0.95;0.55;;;21.20;99.90;;;;;;5060254;28;20225;-57
2022/06/06 07:26:37;;;;;;;1.08;0.52;;;21.40;99.90;;;;;;5059959;28;20232;-55
2022/06/06 07:29:05;;;;;;;2.28;0.88;;;21.40;99.90;;;;;;5060917;28;20189;-59
2022/06/06 07:31:47;;;;;;;0.20;0.20;;;21.10;99.90;;;;;;5059572;28;20534;-60
2022/06/06 07:34:19;;;;;;;2.22;0.45;;;20.90;99.90;;;;;;5059710;28;20229;-59
2022/06/06 07:37:02;;;;;;;0.93;0.45;;;20.70;99.90;;;;;;5059120;28;20765;-60
2022/06/06 07:40:01;;;;;;;0.43;0.32;;;20.60;99.90;;;;;;5060002;28;20190;-57
2022/06/06 07:42:42;;;;;;;0.30;0.30;;;21.00;99.90;;;;;;5031253;28;20202;-58
2022/06/06 07:45:23;;;;;;;2.15;1.13;;;21.40;99.90;;;;;;5060227;28;20169;-59
2022/06/06 07:48:10;;;;;;;13.30;2.75;;;21.70;99.90;;;;;;5059680;28;20211;-59
2022/06/06 07:51:06;;;;;;;1.05;0.57;;;21.90;99.90;;;;;;5059052;28;20273;-60
2022/06/06 07:53:56;;;;;;;18.83;7.72;;;21.70;99.90;;;;;;5059199;28;20177;-59
2022/06/06 07:56:43;;;;;;;32.15;7.82;;;21.50;99.90;;;;;;5058871;28;20201;-60
2022/06/06 07:59:34;;;;;;;21.65;8.13;;;21.70;99.90;;;;;;5059548;28;20231;-60
2022/06/06 08:02:24;;;;;;;23.83;7.85;;;21.90;99.90;;;;;;5059651;28;20269;-59
2022/06/06 08:05:04;;;;;;;8.30;6.60;;;22.10;99.60;;;;;;5059445;28;20229;-59
2022/06/06 08:07:42;;;;;;;26.40;7.45;;;22.20;98.40;;;;;;5059626;28;20189;-59
2022/06/06 08:10:26;;;;;;;15.70;5.97;;;22.20;98.50;;;;;;5058592;28;20594;-60
2022/06/06 08:13:04;;;;;;;8.90;5.30;;;22.40;98.60;;;;;;5060822;28;20607;-58
2022/06/06 08:15:56;;;;;;;35.83;7.53;;;22.30;99.00;;;;;;5062766;28;20193;-57
2022/06/06 08:19:01;;;;;;;12.38;5.82;;;22.40;98.40;;;;;;5063551;28;20271;-59
2022/06/06 08:21:40;;;;;;;13.27;5.70;;;22.30;98.60;;;;;;5062999;28;20181;-60
2022/06/06 08:24:12;;;;;;;9.05;4.90;;;22.40;97.80;;;;;;5062644;28;20649;-59
2022/06/06 08:26:41;;;;;;;8.20;5.05;;;22.50;98.30;;;;;;5063413;28;20178;-59
2022/06/06 08:29:09;;;;;;;9.18;5.00;;;22.70;99.50;;;;;;5063371;28;20200;-60
2022/06/06 08:31:35;;;;;;;15.73;5.40;;;22.70;98.20;;;;;;5063071;28;20202;-58
2022/06/06 08:34:01;;;;;;;10.60;5.32;;;22.80;97.90;;;;;;5062305;28;20258;-60
2022/06/06 08:36:57;;;;;;;6.40;4.65;;;22.80;97.30;;;;;;5061666;28;20677;-58
2022/06/06 08:39:57;;;;;;;15.35;4.97;;;23.00;97.40;;;;;;5063876;28;20178;-60
2022/06/06 08:42:44;;;;;;;14.90;5.28;;;23.10;96.80;;;;;;5062671;28;20272;-59
2022/06/06 08:45:15;;;;;;;8.45;4.25;;;23.20;96.70;;;;;;5062562;28;20662;-60
2022/06/06 08:48:19;;;;;;;8.00;4.20;;;22.90;96.70;;;;;;5062568;28;20190;-59
2022/06/06 08:51:10;;;;;;;19.80;4.07;;;22.70;96.60;;;;;;5063449;28;20537;-59
2022/06/06 08:53:54;;;;;;;19.83;5.07;;;22.40;96.80;;;;;;5062804;28;20181;-60
2022/06/06 08:56:53;;;;;;;10.95;5.72;;;22.60;97.70;;;;;;5061809;28;20215;-60
2022/06/06 08:59:41;;;;;;;19.80;6.13;;;22.40;97.10;;;;;;5062323;28;20579;-60
2022/06/06 09:02:44;;;;;;;16.20;5.00;;;22.50;97.20;;;;;;5062584;28;20186;-58
2022/06/06 09:05:28;;;;;;;12.30;4.88;;;22.90;97.20;;;;;;5062154;28;20260;-60
2022/06/06 09:08:25;;;;;;;9.80;3.88;;;23.30;95.60;;;;;;5062155;28;20251;-61
2022/06/06 09:11:29;;;;;;;9.07;4.47;;;23.60;95.00;;;;;;5061783;28;20178;-60
2022/06/06 09:14:28;;;;;;;12.15;4.72;;;23.30;94.60;;;;;;5008931;28;20191;-61
2022/06/06 09:17:42;;;;;;;8.15;4.10;;;23.40;94.40;;;;;;5060312;28;20197;-63
2022/06/06 09:20:31;;;;;;;17.83;6.88;;;23.60;93.60;;;;;;5054102;28;20277;-60
2022/06/06 09:23:16;;;;;;;8.73;3.83;;;23.50;93.40;;;;;;5061237;28;20198;-62
2022/06/06 09:26:00;;;;;;;7.30;3.35;;;23.80;92.70;;;;;;5060498;28;20511;-62
2022/06/06 09:29:11;;;;;;;19.85;4.95;;;24.00;91.40;;;;;;5061179;28;20197;-62
2022/06/06 09:31:58;;;;;;;10.38;5.40;;;24.30;91.30;;;;;;5057910;28;20202;-59
2022/06/06 09:34:33;;;;;;;5.75;4.07;;;24.30;91.10;;;;;;5061956;28;20625;-60
2022/06/06 09:37:03;;;;;;;23.85;5.20;;;24.30;91.00;;;;;;5061458;28;20211;-66
2022/06/06 09:39:34;;;;;;;12.07;4.25;;;24.20;91.60;;;;;;5061631;28;20216;-61
2022/06/06 09:42:40;;;;;;;8.40;3.50;;;24.40;89.50;;;;;;5059949;28;20181;-61
2022/06/06 09:45:31;;;;;;;13.30;5.40;;;24.20;87.80;;;;;;5055788;28;20228;-62
2022/06/06 09:48:42;;;;;;;4.88;3.95;;;24.20;91.60;;;;;;5059074;28;20181;-61
2022/06/06 09:51:22;;;;;;;10.07;4.15;;;24.10;90.00;;;;;;5058322;28;20304;-60
2022/06/06 10:00:42;;;;;;;10.00;4.40;;;24.80;87.50;;;;;;5062096;28;20647;-62
2022/06/06 10:03:34;;;;;;;10.60;4.05;;;24.70;85.00;;;;;;5060481;28;20541;-58
2022/06/06 10:06:27;;;;;;;16.45;4.50;;;24.90;84.90;;;;;;5060875;28;20189;-61
2022/06/06 10:08:59;;;;;;;12.25;4.07;;;25.00;82.50;;;;;;5061118;28;20189;-61
2022/06/06 10:11:25;;;;;;;11.90;4.00;;;25.30;81.60;;;;;;5061552;28;20190;-61
2022/06/06 10:14:12;;;;;;;19.30;6.72;;;25.20;81.60;;;;;;5061157;28;20186;-61
2022/06/06 10:17:08;;;;;;;7.47;4.53;;;25.10;82.80;;;;;;5060509;28;20202;-63
2022/06/06 10:20:11;;;;;;;14.02;4.63;;;24.30;84.30;;;;;;5060810;28;20190;-57
2022/06/06 10:22:53;;;;;;;7.20;4.25;;;24.20;86.00;;;;;;5060332;28;20208;-55
2022/06/06 10:25:22;;;;;;;13.02;5.50;;;24.30;84.60;;;;;;5060278;28;20230;-62
2022/06/06 10:27:47;;;;;;;25.13;6.50;;;24.60;87.20;;;;;;5060424;28;20243;-61
2022/06/06 10:30:25;;;;;;;23.52;4.95;;;24.70;87.00;;;;;;5061065;28;20546;-61
2022/06/06 10:33:14;;;;;;;9.50;3.10;;;24.60;85.90;;;;;;5060336;28;20700;-61
2022/06/06 10:36:06;;;;;;;16.40;4.45;;;24.30;83.00;;;;;;5059668;28;20196;-68
2022/06/06 10:39:01;;;;;;;15.23;3.97;;;24.30;83.70;;;;;;5059952;28;20188;-60
2022/06/06 10:41:46;;;;;;;9.25;4.18;;;24.50;85.10;;;;;;5061499;28;20239;-65
2022/06/06 10:44:42;;;;;;;27.48;4.90;;;24.90;84.00;;;;;;5059479;28;20879;-60
2022/06/06 10:47:38;;;;;;;13.27;4.18;;;24.70;83.10;;;;;;5058892;28;20603;-65
2022/06/06 10:50:19;;;;;;;11.98;3.88;;;25.10;82.70;;;;;;5059241;28;20469;-61
2022/06/06 10:53:09;;;;;;;8.75;4.53;;;25.30;85.30;;;;;;5060449;28;20185;-60
2022/06/06 10:55:35;;;;;;;9.25;3.35;;;25.60;83.20;;;;;;5060539;28;20182;-60
2022/06/06 10:58:07;;;;;;;7.20;2.70;;;25.90;77.40;;;;;;5060952;28;20241;-60
2022/06/06 11:01:04;;;;;;;3.90;2.85;;;26.30;76.30;;;;;;5060110;28;20759;-59
2022/06/06 11:03:50;;;;;;;11.35;3.92;;;26.60;72.70;;;;;;5054225;28;20335;-61
2022/06/06 11:06:44;;;;;;;16.23;4.22;;;26.30;72.60;;;;;;5038945;28;20666;-60
2022/06/06 11:09:30;;;;;;;23.20;4.93;;;25.90;75.30;;;;;;5059853;28;20181;-59
2022/06/06 11:12:25;;;;;;;7.68;3.20;;;25.60;77.70;;;;;;5058915;28;20178;-61
2022/06/06 11:14:52;;;;;;;18.63;4.95;;;24.70;77.50;;;;;;5049806;28;20206;-60
2022/06/06 11:17:27;;;;;;;10.57;3.45;;;24.30;79.40;;;;;;5059873;28;20213;-60
2022/06/06 11:20:14;;;;;;;10.35;3.70;;;23.90;82.40;;;;;;5059718;28;20184;-59
2022/06/06 11:23:07;;;;;;;11.65;3.70;;;23.90;82.40;;;;;;5060372;28;20192;-61
2022/06/06 11:25:59;;;;;;;9.23;3.55;;;24.10;82.00;;;;;;5059820;28;20226;-59
2022/06/06 11:28:35;;;;;;;7.05;3.35;;;24.80;81.00;;;;;;5056939;28;20303;-60
2022/06/06 11:31:36;;;;;;;22.80;5.18;;;25.20;78.20;;;;;;5059167;28;20276;-61
2022/06/06 11:34:10;;;;;;;14.13;4.15;;;25.70;78.60;;;;;;5056402;28;20524;-58
2022/06/06 11:37:00;;;;;;;14.48;3.83;;;26.50;74.50;;;;;;5060168;28;20215;-59
2022/06/06 11:39:50;;;;;;;14.88;3.53;;;27.10;72.10;;;;;;5060218;28;20193;-59
2022/06/06 11:42:22;;;;;;;4.35;3.00;;;27.10;70.70;;;;;;5060299;28;20335;-60
2022/06/06 11:44:48;;;;;;;12.68;4.28;;;27.60;70.60;;;;;;5059827;28;20190;-62
2022/06/06 11:47:16;;;;;;;12.13;4.38;;;28.00;71.10;;;;;;5054176;28;21031;-64
2022/06/06 11:50:00;;;;;;;8.27;3.45;;;27.80;68.20;;;;;;5057417;28;20186;-63
2022/06/06 11:53:00;;;;;;;9.07;3.30;;;27.30;70.90;;;;;;5056499;28;20189;-61
2022/06/06 11:55:43;;;;;;;5.20;3.28;;;27.30;71.60;;;;;;5058673;28;20603;-60
2022/06/06 11:58:30;;;;;;;11.75;3.83;;;27.00;69.40;;;;;;5058239;28;20206;-64
2022/06/06 12:01:08;;;;;;;8.07;3.17;;;26.20;70.90;;;;;;5057868;28;20280;-63
2022/06/06 12:03:56;;;;;;;10.50;3.28;;;26.20;73.00;;;;;;5057737;28;20680;-59
2022/06/06 12:06:27;;;;;;;12.95;3.85;;;26.10;74.30;;;;;;5058337;28;20266;-57
2022/06/06 12:09:07;;;;;;;12.25;4.10;;;26.60;72.30;;;;;;5059493;28;20178;-55
2022/06/06 12:12:10;;;;;;;6.88;3.00;;;27.20;70.00;;;;;;5059176;28;20521;-59
2022/06/06 12:14:57;;;;;;;9.05;3.22;;;28.60;65.80;;;;;;5058209;28;20192;-60
2022/06/06 12:17:41;;;;;;;7.88;2.90;;;28.60;62.90;;;;;;5058048;28;20205;-58
2022/06/06 12:20:47;;;;;;;8.35;2.90;;;29.30;64.20;;;;;;5060270;28;20194;-63
2022/06/06 12:23:31;;;;;;;3.45;2.60;;;31.40;59.20;;;;;;5042840;28;20312;-62
2022/06/06 12:26:28;;;;;;;23.30;4.30;;;31.30;56.90;;;;;;5058611;28;20592;-60
2022/06/06 12:28:56;;;;;;;10.85;3.33;;;32.30;54.90;;;;;;5057374;28;20205;-61
2022/06/06 12:31:25;;;;;;;6.15;2.90;;;34.30;53.00;;;;;;5059555;28;20196;-61
2022/06/06 12:34:18;;;;;;;15.50;3.08;;;33.70;50.40;;;;;;5058848;28;20196;-61
2022/06/06 12:36:55;;;;;;;5.75;2.13;;;33.60;50.80;;;;;;5058017;28;20206;-65
2022/06/06 12:39:33;;;;;;;9.75;2.50;;;34.70;48.20;;;;;;5059174;28;20195;-62
2022/06/06 12:42:31;;;;;;;10.52;3.47;;;34.60;46.90;;;;;;5058555;28;20236;-61
2022/06/06 12:45:36;;;;;;;8.57;2.70;;;35.30;46.80;;;;;;5058593;28;20294;-61
2022/06/06 12:48:39;;;;;;;5.00;2.65;;;37.10;45.50;;;;;;5058939;28;20184;-62
2022/06/06 12:51:12;;;;;;;6.45;2.67;;;39.30;42.80;;;;;;5059319;28;20217;-60
2022/06/06 12:53:54;;;;;;;9.88;3.40;;;38.30;39.90;;;;;;5057054;28;20237;-59
2022/06/06 12:56:38;;;;;;;5.93;2.60;;;35.60;42.30;;;;;;5058310;28;20212;-61
2022/06/06 12:59:24;;;;;;;15.48;2.67;;;33.50;44.70;;;;;;5058468;28;20875;-67
2022/06/06 13:02:18;;;;;;;22.17;3.60;;;32.20;47.10;;;;;;5062845;28;20184;-63
2022/06/06 13:04:58;;;;;;;6.78;2.92;;;31.30;47.10;;;;;;5062260;28;20645;-61
2022/06/06 13:07:45;;;;;;;17.17;6.00;;;30.80;49.10;;;;;;5062734;28;20212;-62
2022/06/06 13:10:29;;;;;;;11.70;3.55;;;30.40;48.20;;;;;;5062146;28;20269;-60
2022/06/06 13:13:34;;;;;;;3.88;2.22;;;29.70;50.00;;;;;;5062788;28;20182;-60
2022/06/06 13:16:24;;;;;;;24.73;5.28;;;29.10;50.80;;;;;;5060010;28;20210;-59
2022/06/06 13:19:27;;;;;;;9.77;3.33;;;28.30;52.70;;;;;;5062047;28;20178;-61
2022/06/06 13:22:00;;;;;;;6.20;2.85;;;28.40;53.90;;;;;;5062127;28;20484;-60
2022/06/06 13:24:41;;;;;;;7.47;3.15;;;28.80;52.60;;;;;;5062366;28;20261;-63
2022/06/06 13:27:25;;;;;;;21.52;5.25;;;30.30;52.10;;;;;;5061641;28;20186;-59
2022/06/06 13:29:50;;;;;;;4.75;2.65;;;33.70;49.60;;;;;;5061809;28;20652;-63
2022/06/06 13:32:22;;;;;;;6.00;2.20;;;34.90;44.20;;;;;;5060718;28;20190;-63
2022/06/06 13:35:09;;;;;;;4.90;2.50;;;34.50;44.40;;;;;;5062129;28;20198;-63
2022/06/06 13:38:12;;;;;;;11.43;2.80;;;32.80;44.70;;;;;;5061647;28;20224;-64
2022/06/06 13:40:44;;;;;;;9.85;2.72;;;33.50;45.50;;;;;;5062149;28;20181;-61
2022/06/06 13:43:24;;;;;;;8.68;2.60;;;35.30;45.10;;;;;;5062179;28;20291;-60
2022/06/06 13:46:33;;;;;;;6.35;2.25;;;37.10;41.00;;;;;;5059289;28;20262;-59
2022/06/06 13:49:31;;;;;;;5.00;2.30;;;38.00;39.50;;;;;;5062368;28;20258;-65
2022/06/06 13:52:21;;;;;;;5.82;2.72;;;36.00;40.00;;;;;;5061609;28;20182;-61
2022/06/06 13:54:47;;;;;;;3.00;2.10;;;33.70;43.50;;;;;;5060521;28;20755;-59
2022/06/06 13:57:45;;;;;;;3.03;2.17;;;31.60;45.70;;;;;;5043346;28;20304;-58
2022/06/06 14:00:14;;;;;;;15.68;3.80;;;29.90;47.00;;;;;;5061870;28;20185;-65
2022/06/06 14:02:53;;;;;;;4.13;2.47;;;28.60;49.50;;;;;;5061549;28;20265;-63
2022/06/06 14:05:57;;;;;;;65.20;8.85;;;27.90;51.80;;;;;;5060669;28;20193;-63
2022/06/06 14:08:23;;;;;;;16.77;3.33;;;27.20;53.70;;;;;;5061342;28;20698;-60
2022/06/06 14:10:56;;;;;;;13.32;2.80;;;28.80;52.50;;;;;;5060796;28;20188;-59